Time;durP1;ratioP1;P1;durP2;ratioP2;P2;SDS_P1;SDS_P2;PMS_P1;PMS_P2;Temp;Humidity;BMP_temperature;BMP_pressure;BME280_temperature;BME280_humidity;BME280_pressure;Samples;Min_cycle;Max_cycle;Signal;HPM_P1;HPM_P2
2021/03/28 00:01:39;;;;;;;17.00;8.13;;;;;;;5.46;68.54;102083.69;5060312;28;20430;-69
2021/03/28 00:04:10;;;;;;;13.13;8.67;;;;;;;5.69;67.61;102074.50;5060401;28;20415;-69
2021/03/28 00:06:45;;;;;;;20.53;9.17;;;;;;;5.62;69.38;102080.19;5060371;28;20828;-69
2021/03/28 00:09:28;;;;;;;17.17;7.90;;;;;;;5.74;68.31;102087.72;5077796;28;20708;-69
2021/03/28 00:12:08;;;;;;;14.57;8.13;;;;;;;5.56;69.16;102085.94;5077426;28;20516;-68
2021/03/28 00:14:45;;;;;;;14.93;8.67;;;;;;;5.60;68.81;102081.81;5060244;28;20415;-68
2021/03/28 00:17:19;;;;;;;20.13;8.13;;;;;;;5.15;69.27;102082.06;5077555;28;20442;-68
2021/03/28 00:20:06;;;;;;;16.67;8.70;;;;;;;5.49;68.53;102078.66;5080168;28;20636;-69
2021/03/28 00:22:42;;;;;;;19.40;8.10;;;;;;;5.47;68.70;102082.88;5080866;28;20402;-68
2021/03/28 00:25:21;;;;;;;13.03;8.20;;;;;;;5.51;68.92;102090.00;5080849;28;20922;-68
2021/03/28 00:27:50;;;;;;;23.20;8.87;;;;;;;5.65;67.79;102080.34;5063438;28;20793;-68
2021/03/28 00:30:33;;;;;;;16.97;7.13;;;;;;;5.43;68.33;102086.13;5064477;28;20478;-69
2021/03/28 00:33:25;;;;;;;16.27;8.53;;;;;;;5.54;68.86;102090.13;5064032;28;20445;-68
2021/03/28 00:35:57;;;;;;;14.13;7.40;;;;;;;5.27;69.15;102091.28;5063648;28;20919;-67
2021/03/28 00:38:29;;;;;;;13.47;8.00;;;;;;;5.51;67.48;102102.03;5080978;28;20442;-67
2021/03/28 00:41:19;;;;;;;21.33;7.67;;;;;;;5.50;67.83;102092.50;5063415;28;20427;-67
2021/03/28 00:43:49;;;;;;;11.10;6.90;;;;;;;5.26;68.55;102097.25;5080830;28;20771;-68
2021/03/28 00:46:24;;;;;;;16.00;7.20;;;;;;;5.64;67.48;102094.13;5080645;28;20415;-68
2021/03/28 00:48:52;;;;;;;13.70;7.60;;;;;;;5.87;66.81;102089.19;5060737;28;20430;-68
2021/03/28 00:51:23;;;;;;;19.47;7.80;;;;;;;5.62;68.26;102087.97;5043110;28;20729;-67
2021/03/28 00:53:55;;;;;;;13.10;7.23;;;;;;;5.47;68.18;102095.81;5044164;28;20409;-69
2021/03/28 00:56:39;;;;;;;14.63;7.70;;;;;;;5.57;67.26;102090.31;5060538;28;20412;-69
2021/03/28 00:59:27;;;;;;;14.30;7.63;;;;;;;5.59;67.71;102095.56;5043445;28;20837;-69
2021/03/28 01:02:16;;;;;;;17.53;8.17;;;;;;;5.47;68.84;102089.75;5060534;28;20528;-68
2021/03/28 01:05:00;;;;;;;15.67;7.83;;;;;;;5.71;67.59;102088.44;5060549;28;20409;-67
2021/03/28 01:07:48;;;;;;;23.50;9.37;;;;;;;5.67;66.99;102078.75;5066987;28;20441;-67
2021/03/28 01:10:29;;;;;;;13.00;7.33;;;;;;;5.41;68.04;102082.53;5063019;28;20470;-68
2021/03/28 01:12:54;;;;;;;14.60;6.93;;;;;;;5.60;66.89;102084.38;5080282;28;20464;-67
2021/03/28 01:15:57;;;;;;;18.93;8.60;;;;;;;5.61;67.34;102086.19;5080257;28;20403;-68
2021/03/28 01:18:33;;;;;;;20.47;7.80;;;;;;;5.54;67.36;102086.69;5080126;28;20169;-68
2021/03/28 01:21:21;;;;;;;17.03;7.27;;;;;;;5.62;67.24;102081.91;5063893;28;20419;-69
2021/03/28 01:24:00;;;;;;;17.57;7.80;;;;;;;5.52;67.28;102086.59;5062739;28;20414;-68
2021/03/28 01:27:05;;;;;;;16.10;7.50;;;;;;;5.81;66.55;102083.72;5039384;28;20433;-68
2021/03/28 01:29:47;;;;;;;14.23;7.17;;;;;;;5.76;66.15;102080.91;5038816;28;20460;-67
2021/03/28 01:32:36;;;;;;;14.70;7.13;;;;;;;5.73;67.38;102073.88;5039956;28;20432;-68
2021/03/28 01:35:17;;;;;;;14.80;7.27;;;;;;;5.96;65.77;102074.13;5039232;28;20807;-67
2021/03/28 01:37:57;;;;;;;18.73;7.67;;;;;;;5.89;65.68;102072.06;5039249;28;20835;-68
2021/03/28 01:40:45;;;;;;;21.53;9.27;;;;;;;5.96;65.62;102071.56;5039837;28;20444;-68
2021/03/28 01:43:49;;;;;;;14.10;8.40;;;;;;;5.99;64.64;102068.25;5039733;28;20405;-68
2021/03/28 01:46:36;;;;;;;21.57;7.73;;;;;;;5.67;65.31;102076.16;5039096;28;20440;-68
2021/03/28 01:49:22;;;;;;;16.40;7.70;;;;;;;5.60;67.37;102073.16;5039843;28;20412;-69
2021/03/28 01:51:57;;;;;;;14.23;7.03;;;;;;;5.76;64.85;102072.25;5039479;28;20422;-68
2021/03/28 01:54:47;;;;;;;12.00;7.07;;;;;;;5.61;66.86;102069.78;5039003;28;20501;-68
2021/03/28 01:57:18;;;;;;;16.13;7.47;;;;;;;5.32;66.59;102070.03;5038967;28;20431;-68
2021/03/28 02:00:08;;;;;;;24.00;8.20;;;;;;;5.54;66.42;102065.97;5039242;28;20520;-68
2021/03/28 02:03:00;;;;;;;16.63;6.80;;;;;;;5.61;65.50;102062.88;5039389;28;20432;-68
2021/03/28 02:05:37;;;;;;;18.40;7.37;;;;;;;5.30;65.89;102063.88;5038911;28;20795;-67
2021/03/28 02:08:27;;;;;;;17.00;7.27;;;;;;;5.78;64.30;102060.25;5039464;28;20420;-68
2021/03/28 02:11:09;;;;;;;20.83;7.37;;;;;;;5.68;64.54;102064.09;5039240;28;20467;-67
2021/03/28 02:13:46;;;;;;;14.50;6.40;;;;;;;5.54;64.96;102068.56;5038459;28;20428;-67
2021/03/28 02:16:59;;;;;;;15.50;7.47;;;;;;;5.64;65.75;102065.66;5039146;28;20742;-68
2021/03/28 02:19:27;;;;;;;14.40;7.33;;;;;;;5.62;65.30;102072.44;5030343;28;20439;-68
2021/03/28 02:21:54;;;;;;;14.30;6.20;;;;;;;5.58;65.03;102070.50;5038441;28;20421;-69
2021/03/28 02:24:29;;;;;;;14.93;6.80;;;;;;;5.64;64.82;102070.84;5041675;28;20494;-68
2021/03/28 02:27:04;;;;;;;15.03;6.43;;;;;;;6.06;63.38;102068.66;5058177;28;20435;-68
2021/03/28 02:29:53;;;;;;;13.57;6.00;;;;;;;5.45;63.84;102062.91;5060537;28;20796;-68
2021/03/28 02:32:48;;;;;;;14.33;6.77;;;;;;;5.87;63.64;102064.22;5058018;28;20708;-68
2021/03/28 02:35:51;;;;;;;14.20;7.07;;;;;;;5.64;64.25;102070.84;5058069;28;20416;-68
2021/03/28 02:38:38;;;;;;;14.60;6.40;;;;;;;5.64;63.93;102055.31;5058897;28;20812;-68
2021/03/28 02:41:20;;;;;;;12.20;5.90;;;;;;;5.74;63.14;102062.72;5058006;28;20485;-68
2021/03/28 02:44:09;;;;;;;10.03;6.20;;;;;;;5.86;63.14;102061.56;5057745;28;20467;-68
2021/03/28 02:46:57;;;;;;;12.63;5.30;;;;;;;5.62;62.97;102062.09;5057871;28;20438;-69
2021/03/28 02:49:52;;;;;;;14.17;8.10;;;;;;;5.74;62.43;102049.78;5057788;28;20817;-69
2021/03/28 02:52:39;;;;;;;11.40;6.00;;;;;;;5.66;62.75;102055.38;5057617;28;20436;-69
2021/03/28 02:55:19;;;;;;;10.50;5.90;;;;;;;5.83;62.38;102053.63;5058562;28;20454;-69
2021/03/28 02:57:48;;;;;;;15.10;6.03;;;;;;;5.80;63.31;102054.38;5058361;28;20456;-68
2021/03/28 03:00:34;;;;;;;14.53;6.40;;;;;;;5.69;63.05;102058.13;5038439;28;20435;-67
2021/03/28 03:03:21;;;;;;;11.40;6.53;;;;;;;6.18;63.78;102057.09;5037496;28;20764;-68
2021/03/28 03:05:55;;;;;;;17.20;6.60;;;;;;;5.81;61.96;102061.31;5038314;28;20515;-68
2021/03/28 03:08:40;;;;;;;9.07;5.40;;;;;;;5.74;62.43;102057.53;5038302;28;20420;-68
2021/03/28 03:11:46;;;;;;;11.57;5.83;;;;;;;5.60;62.31;102061.09;5037582;28;20519;-68
2021/03/28 03:14:25;;;;;;;15.77;6.00;;;;;;;5.57;62.94;102063.53;5050068;28;20450;-69
2021/03/28 03:17:08;;;;;;;14.37;7.60;;;;;;;5.75;62.57;102053.25;5058339;28;20416;-68
2021/03/28 03:19:46;;;;;;;11.47;7.03;;;;;;;5.78;62.55;102052.50;5058083;28;20414;-67
2021/03/28 03:22:37;;;;;;;11.63;6.70;;;;;;;5.92;61.27;102048.03;5057217;28;20448;-68
2021/03/28 03:25:11;;;;;;;11.23;6.40;;;;;;;5.77;62.20;102066.28;5067376;28;20536;-68
2021/03/28 03:27:54;;;;;;;11.43;6.23;;;;;;;5.95;60.87;102061.13;5077675;28;20413;-68
2021/03/28 03:30:32;;;;;;;16.83;6.60;;;;;;;5.87;61.23;102052.97;5060598;28;20470;-68
2021/03/28 03:33:21;;;;;;;16.07;6.53;;;;;;;6.07;60.61;102057.50;5078037;28;20427;-68
2021/03/28 03:35:52;;;;;;;11.17;6.43;;;;;;;5.86;61.13;102061.56;5077955;28;20407;-67
2021/03/28 03:38:22;;;;;;;11.40;5.83;;;;;;;5.92;61.21;102067.03;5078228;28;20419;-68
2021/03/28 03:41:01;;;;;;;15.00;6.43;;;;;;;5.95;60.48;102072.34;5077954;28;20411;-68
2021/03/28 03:43:33;;;;;;;10.77;6.30;;;;;;;5.90;61.55;102066.97;5060299;28;20426;-68
2021/03/28 03:46:01;;;;;;;10.07;6.00;;;;;;;6.02;60.63;102071.00;5077986;28;20506;-69
2021/03/28 03:48:43;;;;;;;9.33;6.47;;;;;;;6.07;61.56;102066.94;5077634;28;20407;-69
2021/03/28 03:51:30;;;;;;;12.23;6.23;;;;;;;6.24;60.02;102063.47;5059988;28;20775;-67
2021/03/28 03:54:29;;;;;;;14.90;6.70;;;;;;;6.18;60.87;102067.47;5081400;28;20560;-68
2021/03/28 03:57:16;;;;;;;11.43;6.00;;;;;;;6.04;61.26;102065.09;5081669;28;20430;-68
2021/03/28 03:59:56;;;;;;;10.60;6.13;;;;;;;5.96;60.48;102063.78;5061758;28;20420;-68
2021/03/28 04:02:51;;;;;;;11.97;6.70;;;;;;;6.06;60.17;102059.97;5044398;28;20411;-69
2021/03/28 04:05:44;;;;;;;9.20;6.03;;;;;;;6.06;60.69;102062.56;5061678;28;20451;-69
2021/03/28 04:08:47;;;;;;;10.47;5.83;;;;;;;5.97;60.42;102059.53;5044182;28;20443;-69
2021/03/28 04:11:31;;;;;;;16.17;6.47;;;;;;;6.06;60.13;102071.25;5061362;28;20471;-69
2021/03/28 04:14:08;;;;;;;11.40;5.97;;;;;;;5.63;61.49;102060.38;5079007;28;20437;-69
2021/03/28 04:16:46;;;;;;;10.77;5.80;;;;;;;5.79;61.59;102059.47;5063956;28;20705;-69
2021/03/28 04:19:24;;;;;;;15.20;6.60;;;;;;;5.95;60.74;102055.94;5064004;28;20421;-67
2021/03/28 04:22:01;;;;;;;25.00;6.57;;;;;;;6.12;59.67;102062.00;5081076;28;20425;-68
2021/03/28 04:24:52;;;;;;;10.70;6.30;;;;;;;6.30;59.79;102049.94;5080974;28;20466;-67
2021/03/28 04:27:43;;;;;;;15.03;7.27;;;;;;;6.18;59.82;102044.16;5065310;28;20671;-68
2021/03/28 04:30:30;;;;;;;14.30;7.60;;;;;;;5.84;60.35;102045.06;5064390;28;20462;-69
2021/03/28 04:33:14;;;;;;;9.60;6.70;;;;;;;6.24;59.83;102042.75;5063584;28;20459;-68
2021/03/28 04:35:48;;;;;;;12.00;6.90;;;;;;;6.03;59.63;102050.34;5063571;28;20522;-67
2021/03/28 04:38:35;;;;;;;12.60;7.90;;;;;;;6.35;59.33;102039.81;5063586;28;20431;-68
2021/03/28 04:41:12;;;;;;;12.10;8.33;;;;;;;6.14;60.19;102032.75;5080802;28;20411;-68
2021/03/28 04:43:59;;;;;;;8.77;6.20;;;;;;;6.19;60.37;102035.59;5066357;28;20797;-66
2021/03/28 04:46:40;;;;;;;12.30;6.30;;;;;;;6.24;59.45;102028.94;5063549;28;20419;-68
2021/03/28 04:49:37;;;;;;;11.40;6.70;;;;;;;6.13;60.69;102025.84;5080871;28;20407;-67
2021/03/28 04:52:13;;;;;;;12.00;6.80;;;;;;;6.28;59.95;102036.03;5080646;28;20425;-68
2021/03/28 04:54:55;;;;;;;17.73;6.47;;;;;;;6.53;60.25;102022.53;5080798;28;20494;-68
2021/03/28 04:57:30;;;;;;;14.27;6.53;;;;;;;6.58;58.31;102025.34;5062933;28;20431;-68
2021/03/28 05:00:16;;;;;;;11.40;6.43;;;;;;;6.45;58.38;102023.00;5063625;28;20515;-68
2021/03/28 05:03:03;;;;;;;15.90;6.77;;;;;;;6.42;58.91;102022.88;5060381;28;20467;-67
2021/03/28 05:05:48;;;;;;;11.83;5.90;;;;;;;6.14;60.04;102021.53;5079914;28;20415;-68
2021/03/28 05:08:34;;;;;;;11.30;6.00;;;;;;;6.53;58.91;102016.47;5063019;28;20590;-68
2021/03/28 05:11:36;;;;;;;10.70;5.90;;;;;;;6.42;58.94;102017.69;5080555;28;20466;-67
2021/03/28 05:14:24;;;;;;;12.73;6.77;;;;;;;6.39;58.59;102021.88;5077001;28;20437;-68
2021/03/28 05:17:09;;;;;;;11.50;6.83;;;;;;;6.62;57.76;102016.91;5080383;28;20427;-67
2021/03/28 05:19:48;;;;;;;13.63;6.50;;;;;;;6.46;58.29;102020.47;5042834;28;20431;-68
2021/03/28 05:22:34;;;;;;;10.43;5.80;;;;;;;6.47;59.24;102021.34;5060092;28;20411;-69
2021/03/28 05:25:00;;;;;;;13.30;6.53;;;;;;;6.56;57.98;102011.41;5059993;28;20452;-67
2021/03/28 05:27:53;;;;;;;8.63;6.33;;;;;;;6.44;58.61;102005.66;5072713;28;20484;-68
2021/03/28 05:30:52;;;;;;;11.90;6.00;;;;;;;6.61;57.70;102007.34;5062633;28;20203;-68
2021/03/28 05:33:55;;;;;;;11.43;7.30;;;;;;;6.87;57.45;102002.47;5079966;28;20433;-67
2021/03/28 05:36:42;;;;;;;11.13;5.90;;;;;;;6.89;56.71;102000.84;5079799;28;20494;-67
2021/03/28 05:39:34;;;;;;;10.97;6.60;;;;;;;6.83;57.05;102000.56;5080003;28;20658;-68
2021/03/28 05:42:24;;;;;;;16.70;6.17;;;;;;;6.84;56.77;101994.56;5062184;28;20425;-67
2021/03/28 05:45:14;;;;;;;12.70;7.13;;;;;;;6.78;57.01;101999.44;5079607;28;20486;-68
2021/03/28 05:48:04;;;;;;;9.40;5.80;;;;;;;6.98;57.73;101996.06;5059768;28;20643;-68
2021/03/28 05:50:57;;;;;;;9.23;6.50;;;;;;;7.17;56.73;101986.50;5061121;28;20470;-68
2021/03/28 05:54:04;;;;;;;12.60;6.90;;;;;;;7.06;56.13;101993.81;5059457;28;20404;-67
2021/03/28 05:57:07;;;;;;;10.13;6.80;;;;;;;7.29;55.60;101991.34;5065504;28;20464;-69
2021/03/28 06:00:10;;;;;;;9.27;5.80;;;;;;;7.22;55.60;101987.59;5077734;28;20688;-68
2021/03/28 06:02:54;;;;;;;12.23;6.73;;;;;;;7.24;55.62;102002.41;5079497;28;20749;-68
2021/03/28 06:05:43;;;;;;;10.20;6.97;;;;;;;7.45;55.01;102000.69;5079289;28;20479;-67
2021/03/28 06:08:17;;;;;;;15.47;7.27;;;;;;;7.55;54.78;102005.41;5079213;28;20479;-69
2021/03/28 06:11:11;;;;;;;8.60;5.80;;;;;;;7.15;56.07;102011.50;5078792;28;20485;-67
2021/03/28 06:14:09;;;;;;;9.27;6.03;;;;;;;7.36;55.22;102025.41;5052293;28;20428;-68
2021/03/28 06:16:46;;;;;;;15.97;6.40;;;;;;;7.19;56.05;102016.88;5058200;28;20408;-67
2021/03/28 06:19:34;;;;;;;12.63;6.57;;;;;;;7.61;55.26;102021.25;5046381;28;20498;-68
2021/03/28 06:22:36;;;;;;;7.70;5.90;;;;;;;7.68;54.42;102030.19;5069947;28;20478;-67
2021/03/28 06:25:33;;;;;;;15.73;6.17;;;;;;;7.47;55.79;102030.16;5078796;28;20470;-67
2021/03/28 06:28:44;;;;;;;8.97;6.50;;;;;;;7.83;54.25;102028.22;5062502;28;20415;-67
2021/03/28 06:31:19;;;;;;;9.20;6.43;;;;;;;7.44;55.64;102030.91;5063809;28;20748;-68
2021/03/28 06:34:15;;;;;;;12.67;5.93;;;;;;;7.53;55.16;102031.31;5078573;28;20456;-68
2021/03/28 06:37:09;;;;;;;10.50;6.43;;;;;;;7.87;55.56;102034.44;5076632;28;20483;-69
2021/03/28 06:40:00;;;;;;;10.77;6.20;;;;;;;8.21;53.38;102022.81;5059248;28;20477;-69
2021/03/28 06:42:44;;;;;;;12.10;6.30;;;;;;;7.70;54.78;102016.47;5059012;28;20488;-68
2021/03/28 06:45:40;;;;;;;11.73;6.63;;;;;;;7.68;55.03;102025.00;5061278;28;20423;-67
2021/03/28 06:48:27;;;;;;;9.07;6.13;;;;;;;7.57;56.05;102019.34;5060967;28;20412;-68
2021/03/28 06:51:25;;;;;;;16.10;7.53;;;;;;;7.91;54.53;102016.47;5060899;28;20721;-68
2021/03/28 06:54:17;;;;;;;19.97;6.53;;;;;;;7.62;54.65;102017.84;5060446;28;20788;-68
2021/03/28 06:56:48;;;;;;;10.33;5.90;;;;;;;7.86;54.81;102014.47;5060630;28;20443;-67
2021/03/28 06:59:40;;;;;;;11.40;6.60;;;;;;;7.96;54.21;102014.06;5076716;28;20439;-67
2021/03/28 07:02:24;;;;;;;11.87;6.67;;;;;;;7.56;55.71;102018.47;5076950;28;20427;-67
2021/03/28 07:05:10;;;;;;;12.90;7.10;;;;;;;7.97;54.95;102015.84;5075694;28;20457;-66
2021/03/28 07:08:13;;;;;;;10.67;5.97;;;;;;;7.89;54.89;102012.91;5078391;28;20469;-67
2021/03/28 07:10:50;;;;;;;11.73;6.60;;;;;;;7.78;54.80;102021.06;5078343;28;20480;-67
2021/03/28 07:13:33;;;;;;;12.53;6.97;;;;;;;7.72;55.73;102025.19;5077833;28;20457;-68
2021/03/28 07:16:24;;;;;;;12.30;6.60;;;;;;;8.03;55.17;102015.19;5061056;28;20423;-67
2021/03/28 07:19:11;;;;;;;18.53;7.87;;;;;;;7.93;55.26;102009.63;5077743;28;20419;-67
2021/03/28 07:22:14;;;;;;;9.10;6.73;;;;;;;8.71;53.80;102010.06;5058766;28;20437;-68
2021/03/28 07:24:58;;;;;;;13.10;7.33;;;;;;;8.24;53.95;102015.16;5077111;28;20458;-68
2021/03/28 07:27:29;;;;;;;11.97;7.13;;;;;;;8.36;54.10;102018.25;5060175;28;20434;-68
2021/03/28 07:30:25;;;;;;;12.30;7.40;;;;;;;7.84;55.76;102021.34;5077323;28;20664;-68
2021/03/28 07:33:07;;;;;;;13.03;8.07;;;;;;;8.29;55.71;102029.22;5057348;28;20712;-68
2021/03/28 07:35:56;;;;;;;9.27;6.40;;;;;;;8.01;55.45;102019.41;5059923;28;20431;-70
2021/03/28 07:38:58;;;;;;;10.20;6.53;;;;;;;8.57;55.02;102014.75;5060959;28;20408;-68
2021/03/28 07:41:42;;;;;;;11.03;6.40;;;;;;;8.61;54.24;102023.56;5077936;28;20502;-70
2021/03/28 07:44:29;;;;;;;12.00;7.10;;;;;;;8.67;55.71;102019.44;5077864;28;20407;-68
2021/03/28 07:47:53;;;;;;;10.40;6.50;;;;;;;8.82;53.87;102013.06;5060400;28;20728;-68
2021/03/28 07:50:39;;;;;;;10.73;6.67;;;;;;;8.77;54.01;102018.09;5016618;28;20457;-67
2021/03/28 07:53:48;;;;;;;13.27;6.80;;;;;;;9.13;53.08;102011.59;5073229;28;20426;-68
2021/03/28 07:56:40;;;;;;;12.63;7.47;;;;;;;8.72;53.65;102015.31;5057840;28;20458;-67
2021/03/28 07:59:27;;;;;;;11.43;6.60;;;;;;;9.07;53.07;102005.34;5055532;28;20442;-68
2021/03/28 08:02:30;;;;;;;12.70;7.10;;;;;;;9.41;51.90;102003.91;5059793;28;20444;-68
2021/03/28 08:05:20;;;;;;;15.27;6.90;;;;;;;9.10;53.15;102008.03;5077426;28;20421;-67
2021/03/28 08:07:50;;;;;;;10.70;7.13;;;;;;;9.78;51.55;101997.38;5060468;28;20701;-68
2021/03/28 08:10:40;;;;;;;12.17;7.20;;;;;;;9.88;52.35;101998.56;5059897;28;20454;-68
2021/03/28 08:13:27;;;;;;;12.37;6.63;;;;;;;10.02;50.57;101988.56;5040155;28;20426;-67
2021/03/28 08:16:10;;;;;;;17.33;10.30;;;;;;;10.55;49.83;101985.00;5077163;28;20418;-70
2021/03/28 08:19:13;;;;;;;9.90;6.93;;;;;;;10.81;48.77;101995.31;5060222;28;20693;-66
2021/03/28 08:21:52;;;;;;;12.73;7.00;;;;;;;10.01;50.39;101996.34;5077227;28;20411;-69
2021/03/28 08:24:39;;;;;;;9.73;5.80;;;;;;;10.54;50.04;101975.41;5078642;28;20600;-69
2021/03/28 08:27:28;;;;;;;13.63;6.07;;;;;;;10.95;48.76;101986.19;5058952;28;20439;-68
2021/03/28 08:29:59;;;;;;;14.00;6.40;;;;;;;11.36;47.90;101981.19;5055448;28;20470;-68
2021/03/28 08:32:54;;;;;;;9.40;6.73;;;;;;;12.82;44.67;101966.28;5077214;28;20422;-68
2021/03/28 08:35:46;;;;;;;10.73;6.30;;;;;;;13.88;41.92;101967.31;5060119;28;20403;-68
2021/03/28 08:38:37;;;;;;;10.90;6.67;;;;;;;14.98;39.37;101956.59;5066453;28;20398;-67
2021/03/28 08:41:39;;;;;;;10.50;6.67;;;;;;;14.67;40.21;101966.72;5062957;28;20389;-68
2021/03/28 08:44:20;;;;;;;12.63;6.97;;;;;;;13.92;42.12;101975.28;5080846;28;20779;-67
2021/03/28 08:47:19;;;;;;;13.03;6.40;;;;;;;12.96;44.35;101956.94;5061559;28;20405;-70
2021/03/28 08:50:25;;;;;;;11.87;6.90;;;;;;;13.76;42.82;101955.78;5063546;28;20441;-68
2021/03/28 08:53:00;;;;;;;8.77;6.03;;;;;;;13.77;43.63;101957.56;5043479;28;20408;-69
2021/03/28 08:56:04;;;;;;;8.13;5.93;;;;;;;14.25;41.96;101960.03;5071348;28;20680;-69
2021/03/28 08:58:34;;;;;;;10.97;6.87;;;;;;;13.07;44.58;101972.88;5080375;28;20810;-69
2021/03/28 09:01:25;;;;;;;11.37;6.63;;;;;;;11.76;48.16;101965.66;5063078;28;20688;-70
2021/03/28 09:04:22;;;;;;;12.60;6.10;;;;;;;12.42;47.12;101963.69;5029491;28;20439;-70
2021/03/28 09:06:55;;;;;;;9.13;5.90;;;;;;;12.80;46.24;101977.59;5042847;28;20451;-70
2021/03/28 09:09:38;;;;;;;9.77;5.70;;;;;;;13.20;44.86;101960.91;5060254;28;20640;-69
2021/03/28 09:12:37;;;;;;;8.57;5.80;;;;;;;12.83;46.83;101962.78;5042708;28;20493;-69
2021/03/28 09:15:37;;;;;;;7.47;5.70;;;;;;;13.30;45.92;101955.84;5076334;28;20434;-70
2021/03/28 09:18:33;;;;;;;9.83;5.60;;;;;;;12.94;46.14;101956.06;5080139;28;20683;-68
2021/03/28 09:21:15;;;;;;;8.53;5.40;;;;;;;14.25;43.34;101945.16;5052313;28;20399;-70
2021/03/28 09:24:06;;;;;;;11.80;6.53;;;;;;;15.89;39.15;101935.50;5061103;28;20421;-70
2021/03/28 09:27:09;;;;;;;10.37;5.60;;;;;;;16.39;38.22;101931.41;5075499;28;20509;-68
2021/03/28 09:29:47;;;;;;;8.47;5.33;;;;;;;15.48;40.25;101934.28;5064558;28;20390;-69
2021/03/28 09:32:21;;;;;;;6.83;5.07;;;;;;;15.79;39.62;101945.03;5062433;28;20419;-74
2021/03/28 09:35:25;;;;;;;8.03;4.70;;;;;;;16.56;37.89;101934.09;5078145;28;20545;-72
2021/03/28 09:38:17;;;;;;;9.63;5.93;;;;;;;18.02;35.52;101914.94;5072107;28;20872;-72
2021/03/28 09:40:47;;;;;;;9.87;5.30;;;;;;;18.06;35.41;101918.44;5058414;28;20435;-73
2021/03/28 09:43:23;;;;;;;7.87;5.20;;;;;;;18.33;34.25;101910.47;5062123;28;20382;-72
2021/03/28 09:46:17;;;;;;;10.57;6.00;;;;;;;18.30;34.14;101915.72;5062190;28;20670;-69
2021/03/28 09:48:52;;;;;;;8.53;5.10;;;;;;;18.41;34.15;101907.75;5077647;28;20764;-70
2021/03/28 09:51:39;;;;;;;10.10;6.23;;;;;;;16.93;36.35;101919.31;5079032;28;20520;-72
2021/03/28 09:54:22;;;;;;;9.23;5.20;;;;;;;16.69;37.36;101917.47;5079571;28;20831;-72
2021/03/28 09:57:32;;;;;;;8.67;5.50;;;;;;;15.58;39.20;101919.47;5061634;28;20836;-72
2021/03/28 10:00:29;;;;;;;6.97;4.80;;;;;;;14.93;40.61;101918.88;4998575;28;20835;-72
2021/03/28 10:03:13;;;;;;;8.20;5.00;;;;;;;15.06;40.43;101920.78;5078389;28;20415;-71
2021/03/28 10:05:39;;;;;;;8.53;5.10;;;;;;;15.40;40.16;101921.09;5079075;28;20427;-71
2021/03/28 10:08:09;;;;;;;9.57;5.27;;;;;;;15.04;41.42;101905.88;5079099;28;20419;-71
2021/03/28 10:10:52;;;;;;;7.50;5.57;;;;;;;14.04;43.36;101924.75;5078793;28;20207;-71
2021/03/28 10:13:46;;;;;;;7.50;5.00;;;;;;;13.69;43.59;101926.84;5078750;28;20433;-71
2021/03/28 10:16:11;;;;;;;7.87;5.50;;;;;;;13.69;44.11;101927.69;5061633;28;20481;-71
2021/03/28 10:18:59;;;;;;;6.43;4.70;;;;;;;13.88;43.21;101921.03;5079032;28;20524;-71
2021/03/28 10:21:43;;;;;;;8.60;5.47;;;;;;;14.11;43.51;101916.13;5062044;28;20188;-71
2021/03/28 10:24:20;;;;;;;10.80;5.17;;;;;;;14.63;42.28;101921.16;5079464;28;20386;-72
2021/03/28 10:27:13;;;;;;;8.53;5.90;;;;;;;13.43;45.30;101928.16;5078910;28;20433;-72
2021/03/28 10:30:06;;;;;;;11.40;6.10;;;;;;;14.40;42.92;101926.09;5078517;28;20442;-72
2021/03/28 10:33:08;;;;;;;11.57;6.20;;;;;;;15.02;41.93;101918.09;5078630;28;20443;-71
2021/03/28 10:35:54;;;;;;;8.93;5.40;;;;;;;14.63;42.03;101921.16;5078703;28;20748;-72
2021/03/28 10:38:48;;;;;;;8.20;5.40;;;;;;;15.33;40.55;101908.78;5078625;28;20839;-72
2021/03/28 10:41:40;;;;;;;10.40;5.20;;;;;;;15.52;40.22;101920.31;5040911;28;20430;-71
2021/03/28 10:44:38;;;;;;;7.37;5.30;;;;;;;14.84;41.24;101918.78;5041143;28;20489;-71
2021/03/28 10:47:27;;;;;;;6.77;5.63;;;;;;;15.91;39.92;101907.44;5058282;28;20819;-71
2021/03/28 10:50:26;;;;;;;8.53;5.60;;;;;;;14.84;42.16;101910.91;5041141;28;20435;-71
2021/03/28 10:53:16;;;;;;;8.13;5.03;;;;;;;14.51;43.13;101905.25;5058132;28;20404;-70
2021/03/28 10:56:13;;;;;;;9.10;5.37;;;;;;;14.08;43.97;101905.56;5075229;28;20817;-71
2021/03/28 10:59:09;;;;;;;9.80;5.00;;;;;;;13.87;44.42;101907.88;5078118;28;20430;-71
2021/03/28 11:01:46;;;;;;;5.93;4.50;;;;;;;13.07;46.71;101905.69;5077679;28;20425;-72
2021/03/28 11:04:40;;;;;;;7.30;4.67;;;;;;;13.70;45.31;101890.16;5078028;28;20677;-72
2021/03/28 11:07:14;;;;;;;9.70;5.07;;;;;;;13.87;45.21;101895.69;5060902;28;20829;-71
2021/03/28 11:10:07;;;;;;;7.00;4.93;;;;;;;13.87;44.64;101894.78;5077726;28;20499;-71
2021/03/28 11:12:38;;;;;;;12.07;5.67;;;;;;;13.76;45.23;101894.63;5078118;28;20500;-72
2021/03/28 11:15:31;;;;;;;8.00;5.70;;;;;;;13.86;44.85;101904.38;5060629;28;20396;-72
2021/03/28 11:18:18;;;;;;;7.20;5.13;;;;;;;13.61;45.75;101885.69;5078033;28;20395;-71
2021/03/28 11:21:00;;;;;;;9.63;4.67;;;;;;;13.30;45.85;101902.56;5060490;28;20416;-71
2021/03/28 11:24:23;;;;;;;7.80;5.50;;;;;;;13.59;45.15;101886.50;5060089;28;20431;-72
2021/03/28 11:27:15;;;;;;;10.23;5.70;;;;;;;13.10;46.43;101882.19;4997156;28;20502;-71
2021/03/28 11:30:08;;;;;;;8.83;5.13;;;;;;;13.61;45.45;101883.06;4997320;28;20728;-71
2021/03/28 11:32:49;;;;;;;9.00;4.70;;;;;;;13.46;45.87;101888.03;5074726;28;20390;-71
2021/03/28 11:35:18;;;;;;;8.17;5.40;;;;;;;13.97;45.06;101880.94;5077840;28;20407;-71
2021/03/28 11:37:53;;;;;;;8.00;5.10;;;;;;;13.84;45.23;101877.25;5077824;28;20394;-71
2021/03/28 11:40:24;;;;;;;6.67;5.40;;;;;;;14.03;44.75;101878.44;5040400;28;20426;-72
2021/03/28 11:43:13;;;;;;;7.23;5.03;;;;;;;14.31;44.41;101866.56;5041104;28;20448;-72
2021/03/28 11:45:48;;;;;;;9.80;5.50;;;;;;;14.39;44.52;101874.50;5068210;28;20461;-72
2021/03/28 11:48:22;;;;;;;8.97;5.33;;;;;;;14.07;45.25;101856.63;5077686;28;20431;-70
2021/03/28 11:50:48;;;;;;;6.73;4.93;;;;;;;13.52;45.94;101861.06;5077683;28;20454;-72
2021/03/28 11:53:22;;;;;;;8.67;5.93;;;;;;;13.60;46.00;101859.47;5059610;28;20870;-73
2021/03/28 11:55:55;;;;;;;10.53;5.97;;;;;;;13.42;47.30;101855.69;5077549;28;20505;-72
2021/03/28 11:58:20;;;;;;;7.60;5.10;;;;;;;13.89;45.89;101856.38;5060557;28;20389;-72
2021/03/28 12:00:56;;;;;;;7.57;5.13;;;;;;;13.61;47.04;101853.34;5077435;28;20684;-74
2021/03/28 12:03:21;;;;;;;12.23;5.30;;;;;;;13.80;46.89;101863.25;5077424;28;20161;-73
2021/03/28 12:06:08;;;;;;;12.20;5.37;;;;;;;14.22;45.92;101853.31;5077922;28;20483;-73
2021/03/28 12:08:56;;;;;;;7.23;4.90;;;;;;;14.18;45.99;101856.75;5059916;28;20181;-73
2021/03/28 12:11:50;;;;;;;8.80;4.93;;;;;;;14.23;45.79;101862.91;5060075;28;20463;-71
2021/03/28 12:14:33;;;;;;;11.13;5.60;;;;;;;14.24;46.33;101859.44;5060738;28;20414;-71
2021/03/28 12:17:11;;;;;;;10.53;4.70;;;;;;;13.64;46.26;101856.91;5081126;28;20400;-71
2021/03/28 12:20:04;;;;;;;8.40;4.90;;;;;;;13.94;46.63;101854.69;5081185;28;20775;-71
2021/03/28 12:22:45;;;;;;;10.30;4.90;;;;;;;13.40;47.81;101853.91;5064710;28;20414;-71
2021/03/28 12:25:13;;;;;;;7.23;5.30;;;;;;;13.74;47.13;101860.53;5060704;28;20459;-71
2021/03/28 12:27:49;;;;;;;6.57;4.93;;;;;;;13.21;48.74;101860.56;5061058;28;20729;-71
2021/03/28 12:30:27;;;;;;;10.07;5.00;;;;;;;12.86;49.28;101864.31;5043539;28;20455;-74
2021/03/28 12:33:04;;;;;;;8.93;5.00;;;;;;;13.16;49.23;101856.97;5060729;28;20416;-71
2021/03/28 12:35:49;;;;;;;7.00;4.33;;;;;;;13.17;48.71;101861.34;5078245;28;20513;-70
2021/03/28 12:38:27;;;;;;;11.03;5.67;;;;;;;13.09;49.23;101859.47;5063458;28;20488;-70
2021/03/28 12:41:22;;;;;;;13.10;5.73;;;;;;;13.31;49.27;101857.22;5077822;28;20482;-70
2021/03/28 12:44:18;;;;;;;8.90;4.93;;;;;;;13.37;49.24;101865.22;5072898;28;20422;-71
2021/03/28 12:46:52;;;;;;;8.03;4.87;;;;;;;12.36;52.93;101874.69;5079917;28;20443;-71
2021/03/28 12:49:34;;;;;;;7.70;5.10;;;;;;;12.48;52.61;101874.06;5062431;28;20441;-72